Airfield :
LOGIN :

Register | Disclaimer

   EN    FR    IT 

 










Legend :    VFR   Marginal VFR   IFR   Intensive IFR   Very Intensive IFR
Visi :
Ceiling :
>= 8 km
>= 3000ft
5 to 8 km
1000 to 3000 ft
1500m to 5 km
500 to 1000 ft
800 to 1500m
200 to 500 ft
< 800m
< 200 ft
Symbols :   Thunderstorms  Fog  Heavy snow  Heavy precipitations  Wind > 20 kt
SIGMETs :     Misc.  Thunderstorms  Icing  Turbulence  Mountain Waves  Volcanic Ashes






- Airport Elevation : 465 ft
- IATA code : LEJ


EDDP - Leipzig Halle

CURRENT METAR :
  • 301950Z 36004KT 9999 SCT015 BKN039 02/00 Q1025 TEMPO BKN013

EXPIRED METARs :
  • 301920Z 33005KT 300V360 9999 BKN015 BKN043 02/M00 Q1025 TEMPO BKN013
  • 301850Z 33006KT 9999 BKN015 02/M00 Q1025 TEMPO BKN013
  • 301820Z 31006KT 9999 SCT015 BKN022 02/M00 Q1025 TEMPO BKN013
  • 301750Z 32006KT 9999 SCT013 BKN023 03/M00 Q1025 TEMPO BKN013
  • 301720Z 33006KT 9999 SCT013 BKN021 02/00 Q1025 TEMPO BKN013

TAF TAF EDDP
Valid from the 30 at 18:00 until the 31 at 18:00 UTC


301700Z 3018/3118 33007KT 9999 BKN020
BECMG 3019/3023 BKN013
TEMPO 3022/3106 BKN008
BECMG 3022/3101 03007KT
BECMG 3106/3108 SCT030
BECMG 3115/3118 VRB03KT



MET'MAP, your aeronautical weather chart ! - Copyright ORBIFLY December 2007 - Disclaimer

ORBIFLY MET'MAP TEAM :

Programming & Development : Alexandra Zaïnal
Concept & original design : Baudouin d'Aumeries
Assistance for programming : Marc-Olivier Méhu
Technical & hardware support : Manuel Goepfert

Contact : metmap@orbifly.com




SOURCES & CREDITS :

   NOAA